sensor_id;sensor_type;location;lat;lon;timestamp;pressure;altitude;pressure_sealevel;temperature;humidity
34931;BME280;21134;49.646;8.560;2023-03-21T00:01:00;100745.72;;;8.80;83.87
34931;BME280;21134;49.646;8.560;2023-03-21T00:03:29;100743.19;;;8.80;83.80
34931;BME280;21134;49.646;8.560;2023-03-21T00:05:56;100735.56;;;8.81;83.65
34931;BME280;21134;49.646;8.560;2023-03-21T00:08:24;100736.41;;;8.82;83.82
34931;BME280;21134;49.646;8.560;2023-03-21T00:10:55;100730.44;;;8.83;84.34
34931;BME280;21134;49.646;8.560;2023-03-21T00:13:21;100728.72;;;8.80;84.22
34931;BME280;21134;49.646;8.560;2023-03-21T00:15:48;100729.56;;;8.79;84.42
34931;BME280;21134;49.646;8.560;2023-03-21T00:18:18;100729.56;;;8.78;84.02
34931;BME280;21134;49.646;8.560;2023-03-21T00:20:56;100722.72;;;8.77;84.69
34931;BME280;21134;49.646;8.560;2023-03-21T00:23:24;100722.72;;;8.75;84.90
34931;BME280;21134;49.646;8.560;2023-03-21T00:25:50;100724.41;;;8.72;84.87
34931;BME280;21134;49.646;8.560;2023-03-21T00:28:17;100719.31;;;8.72;85.33
34931;BME280;21134;49.646;8.560;2023-03-21T00:30:43;100711.63;;;8.70;84.82
34931;BME280;21134;49.646;8.560;2023-03-21T00:33:10;100717.56;;;8.71;85.49
34931;BME280;21134;49.646;8.560;2023-03-21T00:35:37;100715.00;;;8.71;85.46
34931;BME280;21134;49.646;8.560;2023-03-21T00:38:05;100712.44;;;8.68;86.12
34931;BME280;21134;49.646;8.560;2023-03-21T00:40:32;100709.03;;;8.66;85.82
34931;BME280;21134;49.646;8.560;2023-03-21T00:42:58;100709.03;;;8.66;85.26
34931;BME280;21134;49.646;8.560;2023-03-21T00:45:25;100715.81;;;8.64;85.69
34931;BME280;21134;49.646;8.560;2023-03-21T00:47:51;100707.25;;;8.60;85.58
34931;BME280;21134;49.646;8.560;2023-03-21T00:50:18;100702.16;;;8.58;86.05
34931;BME280;21134;49.646;8.560;2023-03-21T00:52:45;100693.59;;;8.55;86.50
34931;BME280;21134;49.646;8.560;2023-03-21T00:55:14;100694.44;;;8.54;86.51
34931;BME280;21134;49.646;8.560;2023-03-21T00:57:41;100691.03;;;8.53;86.31
34931;BME280;21134;49.646;8.560;2023-03-21T01:00:12;100688.47;;;8.50;86.44
34931;BME280;21134;49.646;8.560;2023-03-21T01:02:40;100686.75;;;8.49;87.05
34931;BME280;21134;49.646;8.560;2023-03-21T01:05:21;100685.91;;;8.49;86.72
34931;BME280;21134;49.646;8.560;2023-03-21T01:08:08;100685.00;;;8.45;87.45
34931;BME280;21134;49.646;8.560;2023-03-21T01:10:39;100682.44;;;8.44;86.77
34931;BME280;21134;49.646;8.560;2023-03-21T01:13:07;100683.28;;;8.43;87.64
34931;BME280;21134;49.646;8.560;2023-03-21T01:15:33;100676.50;;;8.43;87.05
34931;BME280;21134;49.646;8.560;2023-03-21T01:18:00;100677.31;;;8.42;87.58
34931;BME280;21134;49.646;8.560;2023-03-21T01:20:27;100681.56;;;8.42;87.16
34931;BME280;21134;49.646;8.560;2023-03-21T01:22:54;100675.59;;;8.40;87.55
34931;BME280;21134;49.646;8.560;2023-03-21T01:25:20;100672.13;;;8.36;87.42
34931;BME280;21134;49.646;8.560;2023-03-21T01:27:48;100671.25;;;8.34;88.28
34931;BME280;21134;49.646;8.560;2023-03-21T01:30:15;100668.69;;;8.31;88.08
34931;BME280;21134;49.646;8.560;2023-03-21T01:32:42;100666.94;;;8.28;88.14
34931;BME280;21134;49.646;8.560;2023-03-21T01:35:08;100666.06;;;8.25;89.01
34931;BME280;21134;49.646;8.560;2023-03-21T01:37:35;100671.13;;;8.22;88.66
34931;BME280;21134;49.646;8.560;2023-03-21T01:40:03;100675.38;;;8.21;89.84
34931;BME280;21134;49.646;8.560;2023-03-21T01:42:30;100669.38;;;8.18;89.69
34931;BME280;21134;49.646;8.560;2023-03-21T01:45:06;100656.59;;;8.14;90.71
34931;BME280;21134;49.646;8.560;2023-03-21T01:47:52;100665.06;;;8.12;90.25
34931;BME280;21134;49.646;8.560;2023-03-21T01:50:18;100660.81;;;8.12;90.72
34931;BME280;21134;49.646;8.560;2023-03-21T01:52:46;100658.25;;;8.11;90.24
34931;BME280;21134;49.646;8.560;2023-03-21T01:55:15;100659.03;;;8.07;90.56
34931;BME280;21134;49.646;8.560;2023-03-21T01:57:46;100660.72;;;8.05;90.25
34931;BME280;21134;49.646;8.560;2023-03-21T02:00:19;100656.44;;;8.04;90.73
34931;BME280;21134;49.646;8.560;2023-03-21T02:02:49;100654.75;;;8.03;89.85
34931;BME280;21134;49.646;8.560;2023-03-21T02:05:18;100647.97;;;8.03;90.33
34931;BME280;21134;49.646;8.560;2023-03-21T02:07:47;100653.94;;;8.05;90.02
34931;BME280;21134;49.646;8.560;2023-03-21T02:10:17;100646.28;;;8.05;90.16
34931;BME280;21134;49.646;8.560;2023-03-21T02:12:43;100640.31;;;8.02;89.56
34931;BME280;21134;49.646;8.560;2023-03-21T02:15:10;100642.81;;;7.99;90.08
34931;BME280;21134;49.646;8.560;2023-03-21T02:17:42;100633.44;;;7.96;90.40
34931;BME280;21134;49.646;8.560;2023-03-21T02:20:51;100632.59;;;7.96;90.10
34931;BME280;21134;49.646;8.560;2023-03-21T02:26:36;100625.81;;;7.96;90.46
34931;BME280;21134;49.646;8.560;2023-03-21T02:29:28;100621.56;;;7.97;90.66
34931;BME280;21134;49.646;8.560;2023-03-21T02:32:03;100620.75;;;8.01;90.78
34931;BME280;21134;49.646;8.560;2023-03-21T02:35:03;100621.59;;;8.00;89.84
34931;BME280;21134;49.646;8.560;2023-03-21T02:37:41;100617.34;;;7.99;90.92
34931;BME280;21134;49.646;8.560;2023-03-21T02:40:13;100615.59;;;7.96;89.95
34931;BME280;21134;49.646;8.560;2023-03-21T02:42:52;100618.16;;;7.95;91.24
34931;BME280;21134;49.646;8.560;2023-03-21T02:45:24;100618.97;;;7.92;90.43
34931;BME280;21134;49.646;8.560;2023-03-21T02:47:55;100621.47;;;7.90;91.15
34931;BME280;21134;49.646;8.560;2023-03-21T02:50:25;100623.19;;;7.88;91.66
34931;BME280;21134;49.646;8.560;2023-03-21T02:52:57;100621.47;;;7.89;91.31
34931;BME280;21134;49.646;8.560;2023-03-21T02:55:27;100625.72;;;7.90;91.68
34931;BME280;21134;49.646;8.560;2023-03-21T02:57:56;100622.31;;;7.91;91.99
34931;BME280;21134;49.646;8.560;2023-03-21T03:00:25;100624.06;;;7.93;91.62
34931;BME280;21134;49.646;8.560;2023-03-21T03:02:52;100619.00;;;7.95;91.45
34931;BME280;21134;49.646;8.560;2023-03-21T03:05:21;100618.16;;;7.96;91.85
34931;BME280;21134;49.646;8.560;2023-03-21T03:08:04;100619.88;;;7.99;92.64
34931;BME280;21134;49.646;8.560;2023-03-21T03:10:48;100613.09;;;7.98;92.48
34931;BME280;21134;49.646;8.560;2023-03-21T03:13:27;100617.34;;;7.99;91.91
34931;BME280;21134;49.646;8.560;2023-03-21T03:16:03;100606.25;;;7.97;92.32
34931;BME280;21134;49.646;8.560;2023-03-21T03:18:39;100602.84;;;7.93;92.11
34931;BME280;21134;49.646;8.560;2023-03-21T03:21:10;100609.59;;;7.91;91.99
34931;BME280;21134;49.646;8.560;2023-03-21T03:23:44;100602.75;;;7.87;91.95
34931;BME280;21134;49.646;8.560;2023-03-21T03:26:16;100601.03;;;7.84;92.19
34931;BME280;21134;49.646;8.560;2023-03-21T03:28:47;100601.03;;;7.83;92.55
34931;BME280;21134;49.646;8.560;2023-03-21T03:31:20;100602.72;;;7.82;91.86
34931;BME280;21134;49.646;8.560;2023-03-21T03:33:52;100600.94;;;7.78;92.94
34931;BME280;21134;49.646;8.560;2023-03-21T03:36:22;100606.03;;;7.78;91.83
34931;BME280;21134;49.646;8.560;2023-03-21T03:38:54;100606.03;;;7.77;92.81
34931;BME280;21134;49.646;8.560;2023-03-21T03:41:24;100605.19;;;7.78;92.50
34931;BME280;21134;49.646;8.560;2023-03-21T03:43:54;100606.88;;;7.76;92.85
34931;BME280;21134;49.646;8.560;2023-03-21T03:46:26;100604.31;;;7.74;92.36
34931;BME280;21134;49.646;8.560;2023-03-21T03:48:55;100602.59;;;7.73;91.99
34931;BME280;21134;49.646;8.560;2023-03-21T03:51:26;100603.44;;;7.74;92.35
34931;BME280;21134;49.646;8.560;2023-03-21T03:53:57;100600.91;;;7.75;92.05
34931;BME280;21134;49.646;8.560;2023-03-21T03:56:26;100603.47;;;7.75;92.72
34931;BME280;21134;49.646;8.560;2023-03-21T03:58:55;100598.34;;;7.74;92.15
34931;BME280;21134;49.646;8.560;2023-03-21T04:01:22;100596.66;;;7.73;93.15
34931;BME280;21134;49.646;8.560;2023-03-21T04:03:48;100600.06;;;7.75;92.62
34931;BME280;21134;49.646;8.560;2023-03-21T04:06:16;100598.38;;;7.75;93.30
34931;BME280;21134;49.646;8.560;2023-03-21T04:08:42;100600.91;;;7.75;92.28
34931;BME280;21134;49.646;8.560;2023-03-21T04:11:12;100603.50;;;7.78;92.15
34931;BME280;21134;49.646;8.560;2023-03-21T04:13:38;100594.16;;;7.77;92.57
34931;BME280;21134;49.646;8.560;2023-03-21T04:16:06;100593.25;;;7.74;92.97
34931;BME280;21134;49.646;8.560;2023-03-21T04:18:32;100589.84;;;7.70;93.39
34931;BME280;21134;49.646;8.560;2023-03-21T04:20:59;100594.88;;;7.68;93.47
34931;BME280;21134;49.646;8.560;2023-03-21T04:23:26;100597.44;;;7.67;93.95
34931;BME280;21134;49.646;8.560;2023-03-21T04:25:54;100596.53;;;7.63;93.97
34931;BME280;21134;49.646;8.560;2023-03-21T04:28:22;100590.56;;;7.61;93.78
34931;BME280;21134;49.646;8.560;2023-03-21T04:30:49;100592.28;;;7.64;94.06
34931;BME280;21134;49.646;8.560;2023-03-21T04:33:15;100592.25;;;7.61;94.42
34931;BME280;21134;49.646;8.560;2023-03-21T04:35:42;100599.06;;;7.62;94.19
34931;BME280;21134;49.646;8.560;2023-03-21T04:38:09;100588.00;;;7.61;93.46
34931;BME280;21134;49.646;8.560;2023-03-21T04:40:36;100590.53;;;7.57;94.68
34931;BME280;21134;49.646;8.560;2023-03-21T04:43:02;100593.06;;;7.57;94.61
34931;BME280;21134;49.646;8.560;2023-03-21T04:45:30;100593.06;;;7.57;93.69
34931;BME280;21134;49.646;8.560;2023-03-21T04:47:57;100593.88;;;7.54;93.99
34931;BME280;21134;49.646;8.560;2023-03-21T04:50:23;100595.53;;;7.51;94.08
34931;BME280;21134;49.646;8.560;2023-03-21T04:52:50;100589.53;;;7.47;94.03
34931;BME280;21134;49.646;8.560;2023-03-21T04:55:16;100590.34;;;7.44;94.63
34931;BME280;21134;49.646;8.560;2023-03-21T04:57:46;100596.28;;;7.45;94.35
34931;BME280;21134;49.646;8.560;2023-03-21T05:00:13;100593.75;;;7.45;94.48
34931;BME280;21134;49.646;8.560;2023-03-21T05:02:41;100593.78;;;7.48;93.87
34931;BME280;21134;49.646;8.560;2023-03-21T05:05:08;100592.13;;;7.50;93.83
34931;BME280;21134;49.646;8.560;2023-03-21T05:07:37;100589.63;;;7.53;93.29
34931;BME280;21134;49.646;8.560;2023-03-21T05:10:04;100590.53;;;7.57;93.97
34931;BME280;21134;49.646;8.560;2023-03-21T05:12:31;100582.06;;;7.62;93.11
34931;BME280;21134;49.646;8.560;2023-03-21T05:14:58;100579.53;;;7.62;93.95
34931;BME280;21134;49.646;8.560;2023-03-21T05:17:24;100581.22;;;7.60;93.95
34931;BME280;21134;49.646;8.560;2023-03-21T05:19:54;100579.50;;;7.58;94.17
34931;BME280;21134;49.646;8.560;2023-03-21T05:22:22;100574.34;;;7.55;93.97
34931;BME280;21134;49.646;8.560;2023-03-21T05:24:51;100575.13;;;7.48;93.55
34931;BME280;21134;49.646;8.560;2023-03-21T05:27:20;100566.50;;;7.39;94.44
34931;BME280;21134;49.646;8.560;2023-03-21T05:30:00;100575.81;;;7.34;94.54
34931;BME280;21134;49.646;8.560;2023-03-21T05:32:27;100572.31;;;7.29;95.00
34931;BME280;21134;49.646;8.560;2023-03-21T05:34:54;100569.69;;;7.23;95.06
34931;BME280;21134;49.646;8.560;2023-03-21T05:37:21;100559.47;;;7.18;95.49
34931;BME280;21134;49.646;8.560;2023-03-21T05:39:48;100562.78;;;7.13;95.31
34931;BME280;21134;49.646;8.560;2023-03-21T05:42:15;100549.16;;;7.09;96.28
34931;BME280;21134;49.646;8.560;2023-03-21T05:44:42;100554.19;;;7.08;96.08
34931;BME280;21134;49.646;8.560;2023-03-21T05:47:10;100568.63;;;7.06;96.44
34931;BME280;21134;49.646;8.560;2023-03-21T05:49:37;100566.06;;;7.06;95.68
34931;BME280;21134;49.646;8.560;2023-03-21T05:52:05;100563.47;;;7.04;95.46
34931;BME280;21134;49.646;8.560;2023-03-21T05:54:31;100571.97;;;7.03;95.77
34931;BME280;21134;49.646;8.560;2023-03-21T05:56:58;100566.88;;;7.03;96.68
34931;BME280;21134;49.646;8.560;2023-03-21T05:59:25;100563.53;;;7.06;96.14
34931;BME280;21134;49.646;8.560;2023-03-21T06:01:51;100568.56;;;7.03;95.38
34931;BME280;21134;49.646;8.560;2023-03-21T06:04:17;100574.56;;;7.08;95.84
34931;BME280;21134;49.646;8.560;2023-03-21T06:06:44;100581.44;;;7.13;95.61
34931;BME280;21134;49.646;8.560;2023-03-21T06:09:12;100570.44;;;7.17;96.01
34931;BME280;21134;49.646;8.560;2023-03-21T06:11:45;100577.31;;;7.23;94.65
34931;BME280;21134;49.646;8.560;2023-03-21T06:14:12;100576.56;;;7.30;94.68
34931;BME280;21134;49.646;8.560;2023-03-21T06:16:39;100575.00;;;7.40;95.23
34931;BME280;21134;49.646;8.560;2023-03-21T06:19:05;100580.28;;;7.54;94.72
34931;BME280;21134;49.646;8.560;2023-03-21T06:21:32;100587.28;;;7.70;94.68
34931;BME280;21134;49.646;8.560;2023-03-21T06:23:58;100578.16;;;7.90;93.82
34931;BME280;21134;49.646;8.560;2023-03-21T06:26:26;100576.69;;;8.08;93.65
34931;BME280;21134;49.646;8.560;2023-03-21T06:28:53;100577.69;;;8.24;92.31
34931;BME280;21134;49.646;8.560;2023-03-21T06:31:20;100573.66;;;8.44;91.31
34931;BME280;21134;49.646;8.560;2023-03-21T06:33:46;100577.22;;;8.63;90.05
34931;BME280;21134;49.646;8.560;2023-03-21T06:36:13;100584.19;;;8.85;89.61
34931;BME280;21134;49.646;8.560;2023-03-21T06:38:40;100585.16;;;9.03;87.42
34931;BME280;21134;49.646;8.560;2023-03-21T06:41:08;100590.44;;;9.26;86.40
34931;BME280;21134;49.646;8.560;2023-03-21T06:43:36;100587.97;;;9.44;83.23
34931;BME280;21134;49.646;8.560;2023-03-21T06:46:03;100596.53;;;9.51;83.74
34931;BME280;21134;49.646;8.560;2023-03-21T06:48:31;100592.34;;;9.68;81.96
34931;BME280;21134;49.646;8.560;2023-03-21T06:50:57;100594.91;;;9.76;81.18
34931;BME280;21134;49.646;8.560;2023-03-21T06:53:24;100592.38;;;9.74;81.35
34931;BME280;21134;49.646;8.560;2023-03-21T06:55:51;100592.38;;;9.76;81.76
34931;BME280;21134;49.646;8.560;2023-03-21T06:58:18;100592.41;;;9.87;81.26
34931;BME280;21134;49.646;8.560;2023-03-21T07:00:47;100589.06;;;10.03;80.80
34931;BME280;21134;49.646;8.560;2023-03-21T07:03:16;100589.09;;;10.15;80.75
34931;BME280;21134;49.646;8.560;2023-03-21T07:05:43;100595.09;;;10.30;80.39
34931;BME280;21134;49.646;8.560;2023-03-21T07:08:10;100589.16;;;10.46;79.33
34931;BME280;21134;49.646;8.560;2023-03-21T07:10:39;100594.28;;;10.64;77.96
34931;BME280;21134;49.646;8.560;2023-03-21T07:13:06;100591.75;;;10.72;77.26
34931;BME280;21134;49.646;8.560;2023-03-21T07:15:33;100592.56;;;10.88;76.87
34931;BME280;21134;49.646;8.560;2023-03-21T07:18:04;100595.97;;;11.04;76.60
34931;BME280;21134;49.646;8.560;2023-03-21T07:20:31;100590.84;;;11.22;75.61
34931;BME280;21134;49.646;8.560;2023-03-21T07:22:58;100594.19;;;11.41;74.59
34931;BME280;21134;49.646;8.560;2023-03-21T07:25:25;100591.59;;;11.55;73.21
34931;BME280;21134;49.646;8.560;2023-03-21T07:27:52;100595.00;;;11.60;72.36
34931;BME280;21134;49.646;8.560;2023-03-21T07:30:19;100583.91;;;11.53;73.25
34931;BME280;21134;49.646;8.560;2023-03-21T07:32:46;100598.44;;;11.59;73.17
34931;BME280;21134;49.646;8.560;2023-03-21T07:35:16;100594.16;;;11.62;72.06
34931;BME280;21134;49.646;8.560;2023-03-21T07:37:42;100592.50;;;11.43;72.24
34931;BME280;21134;49.646;8.560;2023-03-21T07:40:10;100589.06;;;11.50;72.80
34931;BME280;21134;49.646;8.560;2023-03-21T07:42:37;100588.19;;;11.56;72.66
34931;BME280;21134;49.646;8.560;2023-03-21T07:45:05;100595.00;;;11.61;71.73
34931;BME280;21134;49.646;8.560;2023-03-21T07:47:32;100589.78;;;11.83;72.75
34931;BME280;21134;49.646;8.560;2023-03-21T07:49:59;100588.09;;;11.79;71.22
34931;BME280;21134;49.646;8.560;2023-03-21T07:52:27;100583.78;;;11.93;70.81
34931;BME280;21134;49.646;8.560;2023-03-21T07:54:53;100581.25;;;11.81;69.85
34931;BME280;21134;49.646;8.560;2023-03-21T07:57:20;100592.31;;;11.97;71.01
34931;BME280;21134;49.646;8.560;2023-03-21T07:59:46;100587.03;;;12.21;69.89
34931;BME280;21134;49.646;8.560;2023-03-21T08:02:14;100586.22;;;12.16;68.93
34931;BME280;21134;49.646;8.560;2023-03-21T08:04:41;100582.84;;;12.09;68.00
34931;BME280;21134;49.646;8.560;2023-03-21T08:07:08;100585.38;;;12.16;68.35
34931;BME280;21134;49.646;8.560;2023-03-21T08:09:36;100587.91;;;12.20;68.28
34931;BME280;21134;49.646;8.560;2023-03-21T08:12:04;100590.31;;;12.45;67.97
34931;BME280;21134;49.646;8.560;2023-03-21T08:14:32;100591.00;;;12.65;66.70
34931;BME280;21134;49.646;8.560;2023-03-21T08:16:59;100591.78;;;12.76;66.12
34931;BME280;21134;49.646;8.560;2023-03-21T08:19:25;100585.69;;;12.88;64.52
34931;BME280;21134;49.646;8.560;2023-03-21T08:21:52;100589.88;;;12.97;64.47
34931;BME280;21134;49.646;8.560;2023-03-21T08:24:18;100588.19;;;12.94;65.23
34931;BME280;21134;49.646;8.560;2023-03-21T08:26:46;100588.13;;;13.02;65.33
34931;BME280;21134;49.646;8.560;2023-03-21T08:29:13;100591.50;;;13.09;65.24
34931;BME280;21134;49.646;8.560;2023-03-21T08:31:40;100587.94;;;13.25;64.77
34931;BME280;21134;49.646;8.560;2023-03-21T08:34:07;100582.59;;;13.43;62.48
34931;BME280;21134;49.646;8.560;2023-03-21T08:36:35;100586.72;;;13.55;62.84
34931;BME280;21134;49.646;8.560;2023-03-21T08:39:03;100584.06;;;13.66;63.41
34931;BME280;21134;49.646;8.560;2023-03-21T08:41:30;100585.59;;;13.79;62.94
34931;BME280;21134;49.646;8.560;2023-03-21T08:43:58;100584.69;;;13.85;61.54
34931;BME280;21134;49.646;8.560;2023-03-21T08:46:25;100589.84;;;13.82;60.79
34931;BME280;21134;49.646;8.560;2023-03-21T08:48:51;100585.53;;;13.84;60.46
34931;BME280;21134;49.646;8.560;2023-03-21T08:51:18;100584.56;;;13.92;59.77
34931;BME280;21134;49.646;8.560;2023-03-21T08:53:45;100583.78;;;13.84;61.07
34931;BME280;21134;49.646;8.560;2023-03-21T08:56:11;100587.94;;;13.96;61.55
34931;BME280;21134;49.646;8.560;2023-03-21T08:58:38;100583.69;;;13.95;61.67
34931;BME280;21134;49.646;8.560;2023-03-21T09:01:06;100586.06;;;14.09;62.35
34931;BME280;21134;49.646;8.560;2023-03-21T09:03:35;100580.97;;;14.03;60.48
34931;BME280;21134;49.646;8.560;2023-03-21T09:06:02;100586.84;;;14.12;61.27
34931;BME280;21134;49.646;8.560;2023-03-21T09:08:29;100578.28;;;14.12;61.12
34931;BME280;21134;49.646;8.560;2023-03-21T09:10:55;100581.03;;;14.01;61.31
34931;BME280;21134;49.646;8.560;2023-03-21T09:13:22;100583.22;;;14.27;61.11
34931;BME280;21134;49.646;8.560;2023-03-21T09:15:49;100587.34;;;14.39;59.93
34931;BME280;21134;49.646;8.560;2023-03-21T09:18:18;100578.94;;;14.26;60.45
34931;BME280;21134;49.646;8.560;2023-03-21T09:20:47;100579.75;;;14.30;60.62
34931;BME280;21134;49.646;8.560;2023-03-21T09:23:14;100576.31;;;14.31;60.64
34931;BME280;21134;49.646;8.560;2023-03-21T09:25:44;100581.22;;;14.45;60.00
34931;BME280;21134;49.646;8.560;2023-03-21T09:28:11;100581.97;;;14.56;58.76
34931;BME280;21134;49.646;8.560;2023-03-21T09:30:38;100579.34;;;14.57;57.65
34931;BME280;21134;49.646;8.560;2023-03-21T09:33:05;100582.16;;;14.40;56.96
34931;BME280;21134;49.646;8.560;2023-03-21T09:35:34;100573.44;;;14.52;58.91
34931;BME280;21134;49.646;8.560;2023-03-21T09:38:00;100572.41;;;14.62;58.72
34931;BME280;21134;49.646;8.560;2023-03-21T09:40:38;100577.38;;;14.73;58.12
34931;BME280;21134;49.646;8.560;2023-03-21T09:43:17;100572.22;;;14.73;57.28
34931;BME280;21134;49.646;8.560;2023-03-21T09:45:52;100575.72;;;14.69;57.23
34931;BME280;21134;49.646;8.560;2023-03-21T09:48:31;100578.25;;;14.72;56.58
34931;BME280;21134;49.646;8.560;2023-03-21T09:51:02;100577.91;;;14.92;56.05
34931;BME280;21134;49.646;8.560;2023-03-21T09:53:33;100575.06;;;15.06;56.51
34931;BME280;21134;49.646;8.560;2023-03-21T09:56:00;100571.75;;;15.01;56.16
34931;BME280;21134;49.646;8.560;2023-03-21T09:58:31;100572.66;;;14.98;56.72
34931;BME280;21134;49.646;8.560;2023-03-21T10:01:05;100570.00;;;15.03;56.95
34931;BME280;21134;49.646;8.560;2023-03-21T10:03:46;100576.13;;;14.96;56.90
34931;BME280;21134;49.646;8.560;2023-03-21T10:06:16;100571.53;;;15.11;55.97
34931;BME280;21134;49.646;8.560;2023-03-21T10:08:45;100567.38;;;15.04;56.78
34931;BME280;21134;49.646;8.560;2023-03-21T10:11:16;100573.31;;;15.08;56.19
34931;BME280;21134;49.646;8.560;2023-03-21T10:13:48;100579.31;;;15.08;55.90
34931;BME280;21134;49.646;8.560;2023-03-21T10:16:19;100574.69;;;15.27;55.40
34931;BME280;21134;49.646;8.560;2023-03-21T10:18:46;100567.91;;;15.22;55.86
34931;BME280;21134;49.646;8.560;2023-03-21T10:21:19;100570.63;;;15.16;55.16
34931;BME280;21134;49.646;8.560;2023-03-21T10:23:47;100569.47;;;15.30;56.08
34931;BME280;21134;49.646;8.560;2023-03-21T10:26:16;100565.94;;;15.34;55.91
34931;BME280;21134;49.646;8.560;2023-03-21T10:28:44;100559.22;;;15.29;56.30
34931;BME280;21134;49.646;8.560;2023-03-21T10:31:14;100560.06;;;15.29;55.37
34931;BME280;21134;49.646;8.560;2023-03-21T10:33:44;100559.88;;;15.39;56.04
34931;BME280;21134;49.646;8.560;2023-03-21T10:36:14;100564.31;;;15.30;55.88
34931;BME280;21134;49.646;8.560;2023-03-21T10:38:45;100566.94;;;15.29;56.46
34931;BME280;21134;49.646;8.560;2023-03-21T10:41:12;100558.38;;;15.27;57.02
34931;BME280;21134;49.646;8.560;2023-03-21T10:43:41;100560.13;;;15.25;58.28
34931;BME280;21134;49.646;8.560;2023-03-21T10:46:12;100557.75;;;15.14;59.08
34931;BME280;21134;49.646;8.560;2023-03-21T10:48:41;100553.53;;;15.10;59.21
34931;BME280;21134;49.646;8.560;2023-03-21T10:51:15;100555.38;;;15.03;60.08
34931;BME280;21134;49.646;8.560;2023-03-21T10:53:49;100548.50;;;15.04;59.92
34931;BME280;21134;49.646;8.560;2023-03-21T10:56:16;100545.94;;;15.02;58.84
34931;BME280;21134;49.646;8.560;2023-03-21T10:58:44;100547.53;;;15.09;60.41
34931;BME280;21134;49.646;8.560;2023-03-21T11:01:14;100551.09;;;15.02;60.31
34931;BME280;21134;49.646;8.560;2023-03-21T11:03:44;100549.44;;;15.00;60.99
34931;BME280;21134;49.646;8.560;2023-03-21T11:06:16;100550.56;;;14.85;61.31
34931;BME280;21134;49.646;8.560;2023-03-21T11:08:53;100548.88;;;14.82;62.13
34931;BME280;21134;49.646;8.560;2023-03-21T11:11:23;100546.50;;;14.70;60.34
34931;BME280;21134;49.646;8.560;2023-03-21T11:13:56;100547.44;;;14.66;61.70
34931;BME280;21134;49.646;8.560;2023-03-21T11:16:25;100547.66;;;14.54;62.04
34931;BME280;21134;49.646;8.560;2023-03-21T11:19:00;100547.59;;;14.57;59.58
34931;BME280;21134;49.646;8.560;2023-03-21T11:21:34;100549.38;;;14.53;60.97
34931;BME280;21134;49.646;8.560;2023-03-21T11:24:03;100552.84;;;14.49;60.89
34931;BME280;21134;49.646;8.560;2023-03-21T11:26:32;100550.38;;;14.41;61.96
34931;BME280;21134;49.646;8.560;2023-03-21T11:29:08;100540.03;;;14.46;63.53
34931;BME280;21134;49.646;8.560;2023-03-21T11:31:37;100547.00;;;14.39;64.58
34931;BME280;21134;49.646;8.560;2023-03-21T11:34:05;100541.00;;;14.37;65.26
34931;BME280;21134;49.646;8.560;2023-03-21T11:36:33;100541.00;;;14.37;67.64
34931;BME280;21134;49.646;8.560;2023-03-21T11:39:19;100536.84;;;14.30;65.17
34931;BME280;21134;49.646;8.560;2023-03-21T11:41:50;100544.66;;;14.24;65.35
34931;BME280;21134;49.646;8.560;2023-03-21T11:44:29;100539.47;;;14.27;65.94
34931;BME280;21134;49.646;8.560;2023-03-21T11:46:56;100536.09;;;14.24;66.07
34931;BME280;21134;49.646;8.560;2023-03-21T11:49:23;100536.00;;;14.28;66.60
34931;BME280;21134;49.646;8.560;2023-03-21T11:52:03;100523.88;;;14.35;68.30
34931;BME280;21134;49.646;8.560;2023-03-21T11:54:43;100521.41;;;14.30;64.11
34931;BME280;21134;49.646;8.560;2023-03-21T11:57:21;100520.47;;;14.34;65.13
34931;BME280;21134;49.646;8.560;2023-03-21T12:00:00;100512.69;;;14.37;65.92
34931;BME280;21134;49.646;8.560;2023-03-21T12:02:52;100512.28;;;14.09;64.82
34931;BME280;21134;49.646;8.560;2023-03-21T12:05:25;100507.78;;;14.24;67.13
34931;BME280;21134;49.646;8.560;2023-03-21T12:07:58;100511.81;;;14.40;67.68
34931;BME280;21134;49.646;8.560;2023-03-21T12:10:32;100501.34;;;14.52;65.68
34931;BME280;21134;49.646;8.560;2023-03-21T12:13:25;100490.16;;;14.53;66.60
34931;BME280;21134;49.646;8.560;2023-03-21T12:16:03;100484.75;;;14.67;64.79
34931;BME280;21134;49.646;8.560;2023-03-21T12:18:47;100479.75;;;14.59;64.24
34931;BME280;21134;49.646;8.560;2023-03-21T12:21:25;100480.16;;;14.83;66.44
34931;BME280;21134;49.646;8.560;2023-03-21T12:24:01;100481.06;;;14.82;64.11
34931;BME280;21134;49.646;8.560;2023-03-21T12:26:31;100477.09;;;15.09;65.52
34931;BME280;21134;49.646;8.560;2023-03-21T12:29:17;100480.31;;;15.19;65.02
34931;BME280;21134;49.646;8.560;2023-03-21T12:31:55;100473.19;;;15.33;64.09
34931;BME280;21134;49.646;8.560;2023-03-21T12:34:42;100472.59;;;15.19;64.65
34931;BME280;21134;49.646;8.560;2023-03-21T12:37:22;100463.97;;;15.21;64.80
34931;BME280;21134;49.646;8.560;2023-03-21T12:39:58;100461.06;;;15.38;64.02
34931;BME280;21134;49.646;8.560;2023-03-21T12:45:34;100449.06;;;14.94;62.49
34931;BME280;21134;49.646;8.560;2023-03-21T12:48:13;100444.53;;;15.05;64.12
34931;BME280;21134;49.646;8.560;2023-03-21T12:50:43;100447.66;;;15.21;62.93
34931;BME280;21134;49.646;8.560;2023-03-21T12:53:27;100446.16;;;15.09;61.90
34931;BME280;21134;49.646;8.560;2023-03-21T12:55:57;100443.81;;;15.00;62.63
34931;BME280;21134;49.646;8.560;2023-03-21T12:58:30;100438.66;;;15.00;63.43
34931;BME280;21134;49.646;8.560;2023-03-21T13:01:01;100442.03;;;15.02;62.28
34931;BME280;21134;49.646;8.560;2023-03-21T13:03:31;100430.16;;;14.93;62.26
34931;BME280;21134;49.646;8.560;2023-03-21T13:06:01;100430.50;;;14.78;63.03
34931;BME280;21134;49.646;8.560;2023-03-21T13:08:32;100429.66;;;14.76;63.93
34931;BME280;21134;49.646;8.560;2023-03-21T13:11:02;100427.56;;;14.48;63.29
34931;BME280;21134;49.646;8.560;2023-03-21T13:13:32;100418.91;;;14.55;63.51
34931;BME280;21134;49.646;8.560;2023-03-21T13:16:07;100422.31;;;14.56;63.27